createdAt,value
2019-05-23T00:00:28.330Z,9.40
2019-05-23T00:03:26.105Z,10.00
2019-05-23T00:06:34.319Z,9.63
2019-05-23T00:09:25.124Z,10.67
2019-05-23T00:12:15.818Z,10.77
2019-05-23T00:14:56.382Z,10.90
2019-05-23T00:17:32.035Z,11.73
2019-05-23T00:20:08.401Z,10.93
2019-05-23T00:22:44.250Z,11.20
2019-05-23T00:25:18.053Z,14.17
2019-05-23T00:27:53.457Z,14.53
2019-05-23T00:30:37.068Z,9.53
2019-05-23T00:33:11.768Z,15.33
2019-05-23T00:35:44.845Z,14.20
2019-05-23T00:38:18.128Z,13.67
2019-05-23T00:40:53.406Z,11.07
2019-05-23T00:43:28.618Z,14.93
2019-05-23T00:46:01.417Z,15.83
2019-05-23T00:48:35.515Z,14.47
2019-05-23T00:51:07.805Z,15.93
2019-05-23T00:53:40.899Z,13.27
2019-05-23T00:56:14.165Z,16.10
2019-05-23T00:58:47.096Z,13.47
2019-05-23T01:01:20.368Z,16.87
2019-05-23T01:03:55.579Z,14.50
2019-05-23T01:06:29.795Z,16.57
2019-05-23T01:09:05.912Z,14.73
2019-05-23T01:11:40.996Z,17.60
2019-05-23T01:14:13.792Z,15.10
2019-05-23T01:16:46.665Z,12.50
2019-05-23T01:19:20.568Z,13.77
2019-05-23T01:21:59.543Z,13.93
2019-05-23T01:24:43.944Z,13.77
2019-05-23T01:27:17.627Z,12.13
2019-05-23T01:29:51.799Z,12.03
2019-05-23T01:32:46.057Z,13.57
2019-05-23T01:35:20.164Z,12.27
2019-05-23T01:37:53.665Z,13.27
2019-05-23T01:40:26.447Z,11.00
2019-05-23T01:42:59.230Z,12.77
2019-05-23T01:45:34.125Z,12.57
2019-05-23T01:48:06.744Z,14.43
2019-05-23T01:50:40.850Z,13.83
2019-05-23T01:53:16.806Z,12.57
2019-05-23T01:55:51.240Z,13.83
2019-05-23T01:58:25.441Z,11.90
2019-05-23T02:00:58.519Z,13.43
2019-05-23T02:03:32.541Z,14.53
2019-05-23T02:06:05.529Z,12.37
2019-05-23T02:08:38.622Z,18.20
2019-05-23T02:11:13.138Z,14.70
2019-05-23T02:13:45.807Z,17.03
2019-05-23T02:16:20.346Z,15.03
2019-05-23T02:18:53.427Z,13.23
2019-05-23T02:21:29.301Z,15.00
2019-05-23T02:24:03.594Z,14.07
2019-05-23T02:26:37.814Z,14.30
2019-05-23T02:29:10.995Z,14.20
2019-05-23T02:31:44.332Z,15.90
2019-05-23T02:34:17.673Z,12.17
2019-05-23T02:36:52.120Z,17.90
2019-05-23T02:39:45.270Z,14.97
2019-05-23T02:42:22.072Z,12.97
2019-05-23T02:44:55.636Z,13.83
2019-05-23T02:47:30.885Z,14.23
2019-05-23T02:50:05.764Z,12.57
2019-05-23T02:52:47.418Z,14.47
2019-05-23T02:55:24.362Z,15.07
2019-05-23T02:58:01.192Z,14.73
2019-05-23T03:00:54.688Z,12.87
2019-05-23T03:03:30.890Z,14.53
2019-05-23T03:06:05.040Z,16.37
2019-05-23T03:08:37.678Z,14.20
2019-05-23T03:11:27.696Z,16.90
2019-05-23T03:14:00.456Z,17.97
2019-05-23T03:16:36.259Z,20.00
2019-05-23T03:19:22.913Z,15.80
2019-05-23T03:22:01.737Z,14.27
2019-05-23T03:24:35.960Z,17.43
2019-05-23T03:27:11.023Z,17.53
2019-05-23T03:29:44.680Z,18.03
2019-05-23T03:32:26.276Z,18.43
2019-05-23T03:35:00.491Z,17.07
2019-05-23T03:37:32.726Z,14.20
2019-05-23T03:40:08.899Z,16.37
2019-05-23T03:42:43.138Z,14.67
2019-05-23T03:45:17.759Z,17.87
2019-05-23T03:47:50.339Z,17.97
2019-05-23T03:50:23.966Z,17.87
2019-05-23T03:52:57.742Z,17.70
2019-05-23T03:55:33.211Z,16.13
2019-05-23T03:58:06.585Z,18.57
2019-05-23T04:00:41.715Z,18.97
2019-05-23T04:03:15.318Z,17.70
2019-05-23T04:05:48.762Z,17.77
2019-05-23T04:08:21.905Z,16.70
2019-05-23T04:10:56.231Z,14.93
2019-05-23T04:13:29.004Z,14.13
2019-05-23T04:16:01.282Z,13.40
2019-05-23T04:18:34.466Z,16.83
2019-05-23T04:21:07.552Z,15.57
2019-05-23T04:23:40.384Z,17.97
2019-05-23T04:26:13.349Z,14.40
2019-05-23T04:28:45.996Z,13.33
2019-05-23T04:31:19.190Z,12.47
2019-05-23T04:33:52.387Z,12.97
2019-05-23T04:36:25.159Z,15.27
2019-05-23T04:38:58.351Z,16.67
2019-05-23T04:41:31.140Z,13.87
2019-05-23T04:44:04.333Z,19.07
2019-05-23T04:46:38.239Z,20.67
2019-05-23T04:49:11.770Z,14.80
2019-05-23T04:51:45.842Z,15.83
2019-05-23T04:54:18.984Z,14.50
2019-05-23T04:56:51.926Z,12.67
2019-05-23T04:59:25.931Z,12.37
2019-05-23T05:02:00.558Z,12.70
2019-05-23T05:04:34.159Z,14.63
2019-05-23T05:07:08.216Z,15.00
2019-05-23T05:09:42.079Z,13.17
2019-05-23T05:12:15.103Z,14.50
2019-05-23T05:14:48.150Z,14.30
2019-05-23T05:17:20.376Z,12.13
2019-05-23T05:19:53.508Z,13.80
2019-05-23T05:22:28.034Z,12.60
2019-05-23T05:25:00.923Z,16.60
2019-05-23T05:27:33.714Z,13.00
2019-05-23T05:30:08.731Z,13.90
2019-05-23T05:32:45.287Z,13.87
2019-05-23T05:35:16.687Z,15.23
2019-05-23T05:37:48.882Z,12.40
2019-05-23T05:40:23.538Z,14.73
2019-05-23T05:42:56.846Z,14.20
2019-05-23T05:45:29.625Z,13.80
2019-05-23T05:48:02.443Z,15.43
2019-05-23T05:50:35.097Z,9.77
2019-05-23T05:53:08.269Z,14.63
2019-05-23T05:55:40.925Z,12.90
2019-05-23T05:58:13.523Z,11.63
2019-05-23T06:00:48.185Z,11.93
2019-05-23T06:03:20.920Z,11.83
2019-05-23T06:06:07.229Z,9.70
2019-05-23T06:08:42.367Z,9.93
2019-05-23T06:11:15.969Z,10.60
2019-05-23T06:13:48.660Z,11.53
2019-05-23T06:16:21.730Z,10.57
2019-05-23T06:18:55.242Z,10.30
2019-05-23T06:21:29.453Z,11.63
2019-05-23T06:24:02.650Z,12.97
2019-05-23T06:26:35.622Z,9.63
2019-05-23T06:29:08.371Z,10.57
2019-05-23T06:31:43.954Z,7.77
2019-05-23T06:34:17.144Z,8.37
2019-05-23T06:36:52.860Z,16.17
2019-05-23T06:39:26.287Z,10.80
2019-05-23T06:41:58.972Z,10.00
2019-05-23T06:44:32.430Z,13.20
2019-05-23T06:47:07.100Z,11.00
2019-05-23T06:49:39.772Z,9.80
2019-05-23T06:52:12.911Z,8.57
2019-05-23T06:54:45.376Z,10.97
2019-05-23T06:57:18.626Z,6.27
2019-05-23T06:59:51.410Z,8.13
2019-05-23T07:02:32.247Z,6.83
2019-05-23T07:05:06.086Z,9.77
2019-05-23T07:07:39.995Z,7.87
2019-05-23T07:10:13.097Z,7.33
2019-05-23T07:12:46.787Z,11.47
2019-05-23T07:15:20.036Z,11.47
2019-05-23T07:17:53.068Z,7.37
2019-05-23T07:20:27.073Z,8.57
2019-05-23T07:23:00.802Z,8.80
2019-05-23T07:25:34.997Z,8.90
2019-05-23T07:28:07.676Z,9.00
2019-05-23T07:30:40.135Z,6.93
2019-05-23T07:33:14.681Z,9.17
2019-05-23T07:35:47.999Z,11.93
2019-05-23T07:38:20.856Z,7.60
2019-05-23T07:40:53.485Z,6.60
2019-05-23T07:43:26.617Z,5.83
2019-05-23T07:46:00.110Z,7.17
2019-05-23T07:48:33.304Z,7.80
2019-05-23T07:51:06.043Z,5.60
2019-05-23T07:53:44.213Z,10.20
2019-05-23T07:56:24.758Z,8.80
2019-05-23T07:58:57.542Z,6.87
2019-05-23T08:01:33.400Z,7.63
2019-05-23T08:04:20.514Z,7.33
2019-05-23T08:06:40.590Z,9.37
2019-05-23T08:09:14.560Z,11.20
2019-05-23T08:11:47.285Z,7.33
2019-05-23T08:14:19.961Z,7.47
2019-05-23T08:16:53.914Z,7.50
2019-05-23T08:19:26.652Z,4.80
2019-05-23T08:21:59.236Z,7.90
2019-05-23T08:24:32.828Z,11.03
2019-05-23T08:27:06.949Z,6.67
2019-05-23T08:29:40.753Z,6.57
2019-05-23T08:32:13.423Z,10.23
2019-05-23T08:34:46.122Z,7.17
2019-05-23T08:37:19.205Z,8.03
2019-05-23T08:39:52.198Z,8.93
2019-05-23T08:42:25.890Z,5.53
2019-05-23T08:44:58.896Z,7.27
2019-05-23T08:47:31.655Z,6.30
2019-05-23T08:50:05.868Z,6.83
2019-05-23T08:52:38.096Z,6.60
2019-05-23T08:55:26.688Z,4.33
2019-05-23T08:57:59.834Z,9.03
2019-05-23T09:00:34.510Z,7.27
2019-05-23T09:03:07.392Z,6.47
2019-05-23T09:05:41.758Z,5.07
2019-05-23T09:08:16.988Z,7.63
2019-05-23T09:10:51.768Z,5.30
2019-05-23T09:13:24.555Z,7.13
2019-05-23T09:15:57.959Z,4.20
2019-05-23T09:18:31.866Z,4.70
2019-05-23T09:21:04.743Z,5.27
2019-05-23T09:23:37.110Z,5.17
2019-05-23T09:26:09.405Z,5.17
2019-05-23T09:28:42.269Z,6.47
2019-05-23T09:31:16.389Z,7.60
2019-05-23T09:33:48.958Z,5.40
2019-05-23T09:36:21.840Z,5.80
2019-05-23T09:38:54.539Z,2.63
2019-05-23T09:41:27.200Z,5.63
2019-05-23T09:43:59.975Z,3.80
2019-05-23T09:46:32.814Z,4.40
2019-05-23T09:49:05.661Z,5.97
2019-05-23T09:51:38.735Z,5.13
2019-05-23T09:54:11.868Z,4.10
2019-05-23T09:56:44.819Z,3.93
2019-05-23T09:59:17.674Z,3.30
2019-05-23T10:01:51.121Z,4.73
2019-05-23T10:04:23.992Z,4.47
2019-05-23T10:06:56.764Z,5.03
2019-05-23T10:09:29.486Z,3.80
2019-05-23T10:12:02.321Z,3.10
2019-05-23T10:14:36.362Z,3.40
2019-05-23T10:17:09.416Z,3.70
2019-05-23T10:19:42.304Z,2.83
2019-05-23T10:22:15.287Z,4.03
2019-05-23T10:24:47.874Z,4.33
2019-05-23T10:27:21.076Z,4.40
2019-05-23T10:29:53.795Z,4.07
2019-05-23T10:32:27.644Z,4.10
2019-05-23T10:35:00.219Z,3.97
2019-05-23T10:37:32.899Z,2.00
2019-05-23T10:40:06.607Z,4.37
2019-05-23T10:42:41.849Z,3.43
2019-05-23T10:45:15.657Z,3.10
2019-05-23T10:47:48.740Z,3.67
2019-05-23T10:50:22.134Z,2.93
2019-05-23T10:52:54.811Z,1.73
2019-05-23T10:55:27.415Z,3.23
2019-05-23T10:58:00.114Z,3.40
2019-05-23T11:00:33.462Z,2.60
2019-05-23T11:03:07.096Z,2.73
2019-05-23T11:05:39.950Z,4.73
2019-05-23T11:08:13.332Z,2.70
2019-05-23T11:10:47.009Z,1.67
2019-05-23T11:13:20.249Z,1.43
2019-05-23T11:15:53.951Z,4.30
2019-05-23T11:18:26.632Z,3.33
2019-05-23T11:20:59.205Z,2.50
2019-05-23T11:23:48.775Z,1.70
2019-05-23T11:26:21.669Z,2.47
2019-05-23T11:28:54.443Z,2.60
2019-05-23T11:31:27.644Z,2.60
2019-05-23T11:34:00.305Z,1.97
2019-05-23T11:36:36.159Z,3.73
2019-05-23T11:39:09.909Z,2.60
2019-05-23T11:41:42.649Z,2.23
2019-05-23T11:44:15.330Z,2.13
2019-05-23T11:46:48.311Z,3.90
2019-05-23T11:49:21.510Z,2.53
2019-05-23T11:51:54.180Z,4.23
2019-05-23T11:54:27.784Z,1.30
2019-05-23T11:57:01.076Z,2.77
2019-05-23T11:59:33.350Z,2.17
2019-05-23T12:02:08.289Z,2.37
2019-05-23T12:04:41.163Z,2.70
2019-05-23T12:07:19.384Z,4.73
2019-05-23T12:09:52.052Z,2.00
2019-05-23T12:12:25.149Z,1.97
2019-05-23T12:14:58.738Z,3.47
2019-05-23T12:17:34.986Z,2.67
2019-05-23T12:20:10.655Z,1.87
2019-05-23T12:22:43.616Z,1.77
2019-05-23T12:25:22.790Z,2.47
2019-05-23T12:27:53.461Z,2.90
2019-05-23T12:30:27.164Z,2.67
2019-05-23T12:32:59.791Z,1.57
2019-05-23T12:35:32.461Z,2.03
2019-05-23T12:38:05.656Z,2.87
2019-05-23T12:40:38.336Z,2.40
2019-05-23T12:43:10.918Z,1.67
2019-05-23T12:45:44.253Z,1.63
2019-05-23T12:48:25.696Z,1.57
2019-05-23T12:51:02.528Z,1.57
2019-05-23T12:53:34.876Z,3.10
2019-05-23T12:56:07.732Z,2.07
2019-05-23T12:58:40.407Z,1.77
2019-05-23T13:01:15.863Z,2.50
2019-05-23T13:03:48.531Z,1.00
2019-05-23T13:06:21.306Z,1.40
2019-05-23T13:08:53.982Z,2.47
2019-05-23T13:11:26.665Z,1.40
2019-05-23T13:13:59.337Z,2.80
2019-05-23T13:16:32.841Z,4.23
2019-05-23T13:19:06.340Z,1.90
2019-05-23T13:21:39.225Z,2.10
2019-05-23T13:24:13.444Z,1.50
2019-05-23T13:26:46.531Z,1.23
2019-05-23T13:29:24.978Z,1.63
2019-05-23T13:31:57.827Z,1.87
2019-05-23T13:34:30.401Z,2.57
2019-05-23T13:37:04.457Z,2.70
2019-05-23T13:39:36.899Z,2.13
2019-05-23T13:42:09.562Z,2.00
2019-05-23T13:44:42.652Z,3.60
2019-05-23T13:47:15.440Z,3.37
2019-05-23T13:49:49.343Z,3.43
2019-05-23T13:52:22.023Z,1.60
2019-05-23T13:54:54.629Z,1.87
2019-05-23T13:57:27.538Z,2.67
2019-05-23T14:00:00.163Z,2.33
2019-05-23T14:02:33.354Z,1.47
2019-05-23T14:05:10.527Z,2.37
2019-05-23T14:07:43.243Z,1.50
2019-05-23T14:10:16.244Z,2.77
2019-05-23T14:12:49.392Z,1.93
2019-05-23T14:15:32.423Z,2.47
2019-05-23T14:18:05.183Z,1.70
2019-05-23T14:20:38.583Z,2.03
2019-05-23T14:23:14.092Z,2.60
2019-05-23T14:25:49.702Z,1.90
2019-05-23T14:28:24.006Z,2.03
2019-05-23T14:30:58.224Z,3.80
2019-05-23T14:33:35.408Z,1.77
2019-05-23T14:36:31.717Z,2.20
2019-05-23T14:39:02.060Z,1.50
2019-05-23T14:41:46.628Z,1.90
2019-05-23T14:44:19.917Z,1.43
2019-05-23T14:46:59.964Z,1.13
2019-05-23T14:49:40.321Z,1.83
2019-05-23T14:52:20.147Z,2.10
2019-05-23T14:54:54.689Z,1.90
2019-05-23T14:57:27.529Z,2.63
2019-05-23T15:00:00.162Z,2.03
2019-05-23T15:02:34.885Z,1.90
2019-05-23T15:05:12.265Z,1.87
2019-05-23T15:07:44.843Z,1.97
2019-05-23T15:10:20.188Z,2.03
2019-05-23T15:12:52.624Z,2.20
2019-05-23T15:15:26.365Z,1.90
2019-05-23T15:18:02.619Z,2.87
2019-05-23T15:20:36.845Z,3.73
2019-05-23T15:23:13.925Z,2.13
2019-05-23T15:25:49.473Z,2.03
2019-05-23T15:28:22.151Z,2.10
2019-05-23T15:30:54.837Z,4.00
2019-05-23T15:33:28.094Z,1.10
2019-05-23T15:36:01.030Z,0.90
2019-05-23T15:38:39.191Z,1.93
2019-05-23T15:41:15.777Z,3.60
2019-05-23T15:43:48.986Z,3.10
2019-05-23T15:46:21.656Z,2.67
2019-05-23T15:48:56.013Z,2.30
2019-05-23T15:51:36.263Z,5.17
2019-05-23T15:54:22.403Z,0.80
2019-05-23T15:57:04.263Z,1.77
2019-05-23T15:59:40.907Z,1.80
2019-05-23T16:02:26.980Z,1.20
2019-05-23T16:05:01.599Z,2.13
2019-05-23T16:07:36.035Z,1.60
2019-05-23T16:10:12.101Z,1.30
2019-05-23T16:12:44.773Z,2.67
2019-05-23T16:15:18.779Z,1.67
2019-05-23T16:17:53.319Z,3.30
2019-05-23T16:20:28.206Z,2.73
2019-05-23T16:23:02.668Z,3.27
2019-05-23T16:25:37.642Z,2.13
2019-05-23T16:28:13.816Z,2.20
2019-05-23T16:30:48.114Z,3.07
2019-05-23T16:33:21.837Z,1.97
2019-05-23T16:35:57.446Z,2.03
2019-05-23T16:38:33.724Z,2.60
2019-05-23T16:41:11.047Z,3.97
2019-05-23T16:43:41.704Z,3.43
2019-05-23T16:46:14.594Z,5.90
2019-05-23T16:48:47.477Z,6.47
2019-05-23T16:51:20.156Z,5.13
2019-05-23T16:53:53.559Z,4.33
2019-05-23T16:56:30.615Z,3.77
2019-05-23T16:59:20.213Z,4.53
2019-05-23T17:02:05.965Z,4.50
2019-05-23T17:04:59.454Z,9.63
2019-05-23T17:07:41.183Z,6.13
2019-05-23T17:10:22.024Z,3.47
2019-05-23T17:12:56.382Z,2.30
2019-05-23T17:15:46.392Z,4.20
2019-05-23T17:18:26.678Z,5.30
2019-05-23T17:21:10.523Z,4.33
2019-05-23T17:23:47.713Z,4.13
2019-05-23T17:26:32.263Z,5.30
2019-05-23T17:29:07.218Z,4.97
2019-05-23T17:31:41.611Z,3.87
2019-05-23T17:34:14.193Z,4.43
2019-05-23T17:36:46.898Z,4.40
2019-05-23T17:39:20.889Z,6.00
2019-05-23T17:41:53.862Z,5.90
2019-05-23T17:44:27.065Z,5.30
2019-05-23T17:46:59.343Z,4.87
2019-05-23T17:49:33.494Z,3.57
2019-05-23T17:52:06.436Z,5.23
2019-05-23T17:54:39.006Z,4.40
2019-05-23T17:57:12.396Z,5.57
2019-05-23T17:59:44.975Z,7.20
2019-05-23T18:02:19.198Z,5.27
2019-05-23T18:04:52.185Z,3.20
2019-05-23T18:07:25.581Z,4.27
2019-05-23T18:09:57.903Z,4.50
2019-05-23T18:12:31.140Z,3.30
2019-05-23T18:15:04.123Z,4.00
2019-05-23T18:17:38.442Z,4.07
2019-05-23T18:20:13.463Z,3.97
2019-05-23T18:22:46.225Z,6.40
2019-05-23T18:25:20.374Z,2.77
2019-05-23T18:27:53.666Z,7.60
2019-05-23T18:30:33.517Z,4.27
2019-05-23T18:33:07.470Z,3.67
2019-05-23T18:35:42.027Z,4.70
2019-05-23T18:38:14.721Z,3.97
2019-05-23T18:41:01.720Z,15.27
2019-05-23T18:43:25.456Z,28.13
2019-05-23T18:46:00.135Z,25.60
2019-05-23T18:48:33.538Z,22.07
2019-05-23T18:51:06.890Z,20.03
2019-05-23T18:53:41.271Z,18.00
2019-05-23T18:56:22.283Z,19.93
2019-05-23T18:58:57.156Z,16.37
2019-05-23T19:01:30.441Z,9.40
2019-05-23T19:04:03.178Z,11.90
2019-05-23T19:06:36.717Z,8.80
2019-05-23T19:09:13.006Z,10.00
2019-05-23T19:11:45.666Z,7.13
2019-05-23T19:14:18.379Z,7.27
2019-05-23T19:16:51.436Z,10.80
2019-05-23T19:19:24.382Z,21.13
2019-05-23T19:21:57.566Z,14.20
2019-05-23T19:24:31.888Z,11.33
2019-05-23T19:27:04.871Z,6.40
2019-05-23T19:29:38.272Z,6.70
2019-05-23T19:32:11.775Z,5.60
2019-05-23T19:34:45.202Z,8.47
2019-05-23T19:37:17.525Z,9.50
2019-05-23T19:39:50.327Z,11.53
2019-05-23T19:42:22.907Z,9.33
2019-05-23T19:44:55.589Z,9.07
2019-05-23T19:47:28.766Z,9.70
2019-05-23T19:50:01.449Z,7.80
2019-05-23T19:52:35.667Z,6.20
2019-05-23T19:55:09.679Z,4.70
2019-05-23T19:57:43.175Z,8.43
2019-05-23T20:00:18.105Z,6.77
2019-05-23T20:02:53.199Z,4.90
2019-05-23T20:05:27.653Z,5.23
2019-05-23T20:08:00.361Z,5.13
2019-05-23T20:10:34.341Z,4.27
2019-05-23T20:13:07.601Z,3.93
2019-05-23T20:15:45.059Z,8.37
2019-05-23T20:18:15.319Z,4.93
2019-05-23T20:20:48.032Z,5.30
2019-05-23T20:23:20.610Z,4.17
2019-05-23T20:25:53.643Z,8.37
2019-05-23T20:28:27.602Z,5.10
2019-05-23T20:31:00.712Z,4.53
2019-05-23T20:33:33.588Z,6.23
2019-05-23T20:36:11.956Z,6.53
2019-05-23T20:38:42.521Z,7.63
2019-05-23T20:41:15.204Z,5.93
2019-05-23T20:43:47.419Z,7.70
2019-05-23T20:46:20.356Z,6.67
2019-05-23T20:48:52.945Z,6.30
2019-05-23T20:51:25.719Z,4.80
2019-05-23T20:53:58.398Z,7.57
2019-05-23T20:56:31.803Z,3.60
2019-05-23T20:59:04.984Z,5.17
2019-05-23T21:01:39.301Z,5.60
2019-05-23T21:04:12.281Z,13.97
2019-05-23T21:06:44.666Z,11.87
2019-05-23T21:09:17.333Z,9.53
2019-05-23T21:11:50.055Z,11.10
2019-05-23T21:14:22.690Z,9.20
2019-05-23T21:16:55.480Z,8.37
2019-05-23T21:19:28.156Z,9.73
2019-05-23T21:22:00.839Z,9.83
2019-05-23T21:24:34.848Z,9.93
2019-05-23T21:27:07.723Z,9.37
2019-05-23T21:29:40.615Z,10.17
2019-05-23T21:32:13.596Z,9.23
2019-05-23T21:34:46.173Z,9.07
2019-05-23T21:37:19.984Z,6.17
2019-05-23T21:39:52.657Z,8.77
2019-05-23T21:42:25.644Z,6.67
2019-05-23T21:44:57.911Z,7.10
2019-05-23T21:47:30.209Z,8.80
2019-05-23T21:50:02.848Z,8.80
2019-05-23T21:52:35.548Z,7.83
2019-05-23T21:55:08.638Z,10.83
2019-05-23T21:57:41.318Z,12.17
2019-05-23T22:00:17.078Z,22.03
2019-05-23T22:02:52.045Z,37.60
2019-05-23T22:05:25.388Z,42.13
2019-05-23T22:07:58.167Z,13.33
2019-05-23T22:10:30.847Z,9.53
2019-05-23T22:13:04.870Z,10.90
2019-05-23T22:15:38.880Z,11.07
2019-05-23T22:18:11.563Z,9.50
2019-05-23T22:20:44.123Z,9.33
2019-05-23T22:23:17.218Z,8.87
2019-05-23T22:25:49.440Z,9.50
2019-05-23T22:28:21.733Z,7.53
2019-05-23T22:30:53.961Z,8.10
2019-05-23T22:33:28.244Z,6.40
2019-05-23T22:36:01.543Z,8.93
2019-05-23T22:38:35.539Z,9.03
2019-05-23T22:41:08.217Z,9.60
2019-05-23T22:43:41.009Z,7.53
2019-05-23T22:46:13.733Z,9.03
2019-05-23T22:48:46.519Z,8.40
2019-05-23T22:51:19.446Z,8.83
2019-05-23T22:53:52.337Z,8.30
2019-05-23T22:56:25.014Z,8.40
2019-05-23T22:58:57.650Z,7.73
2019-05-23T23:01:31.711Z,8.27
2019-05-23T23:04:04.388Z,9.37
2019-05-23T23:06:37.364Z,7.57
2019-05-23T23:09:10.260Z,8.83
2019-05-23T23:11:43.143Z,6.73
2019-05-23T23:14:15.914Z,8.47
2019-05-23T23:16:49.314Z,8.23
2019-05-23T23:19:22.305Z,6.10
2019-05-23T23:21:54.733Z,5.80
2019-05-23T23:24:27.453Z,8.87
2019-05-23T23:27:00.131Z,7.23
2019-05-23T23:29:32.932Z,8.47
2019-05-23T23:32:05.681Z,6.93
2019-05-23T23:34:39.814Z,6.07
2019-05-23T23:37:12.793Z,7.23
2019-05-23T23:39:45.806Z,9.60
2019-05-23T23:42:18.562Z,7.53
2019-05-23T23:44:50.321Z,7.47
2019-05-23T23:47:40.204Z,7.83
2019-05-23T23:50:30.001Z,6.47
2019-05-23T23:53:20.485Z,8.07
2019-05-23T23:56:11.385Z,7.13
2019-05-23T23:58:43.146Z,8.03
